Terminal Aerodrome Forecast
Issued by NWS Rapid City, SD

Home | Current Version | Previous Version | Text Only | Print | Product List | Glossary Off
Versions: 1 2 3 4 5 6 7 8 9 10 11 12 13 14 15 16 17 18 19 20 21 22 23 24 25 26 27 28 29

000
FTUS43 KUNR 241124
TAFRAP
TAF
KRAP 241124Z 2412/2512 06010KT 3SM -RA BR OVC006
     FM241800 03014KT 5SM -RA BKN009 OVC015
     FM250000 03008KT P6SM OVC005=

USA.gov is the U.S. government's official web portal to all federal, state and local government web resources and services.